Time;durP1;ratioP1;P1;durP2;ratioP2;P2;SDS_P1;SDS_P2;PMS_P1;PMS_P2;Temp;Humidity;BMP_temperature;BMP_pressure;BME280_temperature;BME280_humidity;BME280_pressure;Samples;Min_cycle;Max_cycle;Signal;HPM_P1;HPM_P2
2023/08/10 00:00:19;;;;;;;3.28;2.50;;;18.10;45.00;;;;;;5055298;28;21046;-52
2023/08/10 00:02:45;;;;;;;3.03;2.55;;;18.10;45.10;;;;;;5055175;28;20207;-51
2023/08/10 00:05:11;;;;;;;5.55;2.92;;;18.10;45.20;;;;;;5055062;28;20177;-55
2023/08/10 00:07:38;;;;;;;9.77;2.40;;;18.00;45.20;;;;;;5055124;28;20166;-55
2023/08/10 00:10:08;;;;;;;5.25;2.50;;;18.10;45.20;;;;;;5054474;28;20176;-53
2023/08/10 00:12:35;;;;;;;4.13;2.35;;;18.10;45.30;;;;;;5054866;28;20185;-53
2023/08/10 00:15:02;;;;;;;3.35;2.40;;;18.00;45.00;;;;;;5054926;28;20703;-54
2023/08/10 00:17:28;;;;;;;5.90;1.77;;;18.00;44.90;;;;;;5054607;28;20192;-52
2023/08/10 00:19:54;;;;;;;4.05;2.50;;;17.90;44.90;;;;;;5055189;28;20169;-54
2023/08/10 00:22:20;;;;;;;2.30;2.07;;;17.90;45.00;;;;;;5054251;28;20550;-51
2023/08/10 00:24:47;;;;;;;3.07;2.27;;;17.90;45.20;;;;;;5054955;28;20408;-54
2023/08/10 00:27:13;;;;;;;5.50;2.50;;;17.90;45.30;;;;;;5054355;28;20215;-52
2023/08/10 00:29:39;;;;;;;4.13;2.33;;;17.90;45.60;;;;;;5055187;28;20273;-54
2023/08/10 00:32:05;;;;;;;5.53;3.40;;;17.90;45.40;;;;;;5056822;28;20219;-56
2023/08/10 00:34:31;;;;;;;5.37;2.43;;;17.90;45.30;;;;;;5056627;28;20169;-54
2023/08/10 00:36:57;;;;;;;5.65;2.80;;;17.80;45.40;;;;;;5054759;28;20433;-53
2023/08/10 00:39:23;;;;;;;3.50;2.57;;;17.80;45.60;;;;;;5054079;28;20177;-52
2023/08/10 00:41:49;;;;;;;5.43;2.35;;;17.80;45.60;;;;;;5053812;28;20673;-52
2023/08/10 00:44:16;;;;;;;4.67;2.17;;;17.90;45.60;;;;;;5054129;28;20184;-54
2023/08/10 00:46:42;;;;;;;3.35;2.40;;;17.90;45.50;;;;;;5054918;28;20185;-54
2023/08/10 00:49:09;;;;;;;7.53;2.70;;;17.80;45.20;;;;;;5054203;28;20199;-52
2023/08/10 00:51:35;;;;;;;3.65;2.40;;;17.80;45.30;;;;;;5055577;28;20593;-52
2023/08/10 00:54:02;;;;;;;2.90;2.17;;;17.80;45.40;;;;;;5054294;28;20193;-56
2023/08/10 00:56:28;;;;;;;4.88;2.58;;;17.70;45.60;;;;;;5053316;28;20189;-51
2023/08/10 00:58:54;;;;;;;4.63;2.10;;;17.70;45.40;;;;;;5053618;28;20169;-52
2023/08/10 01:01:20;;;;;;;3.10;2.57;;;17.70;45.50;;;;;;5053977;28;20203;-54
2023/08/10 01:03:46;;;;;;;3.40;2.20;;;17.70;45.60;;;;;;5054112;28;20408;-56
2023/08/10 01:06:21;;;;;;;4.80;2.77;;;17.70;45.50;;;;;;5054111;28;20450;-52
2023/08/10 01:08:58;;;;;;;3.33;2.70;;;17.70;45.40;;;;;;5054158;28;20415;-53
2023/08/10 01:11:39;;;;;;;3.22;2.38;;;17.70;45.60;;;;;;5053620;28;20204;-57
2023/08/10 01:14:16;;;;;;;3.67;2.63;;;17.60;45.90;;;;;;5054190;28;20164;-54
2023/08/10 01:16:43;;;;;;;3.50;3.17;;;17.60;45.80;;;;;;5053512;28;20205;-53
2023/08/10 01:19:37;;;;;;;4.90;2.47;;;17.60;45.70;;;;;;5054908;28;20177;-53
2023/08/10 01:22:09;;;;;;;5.20;2.20;;;17.60;45.60;;;;;;5054206;28;20197;-54
2023/08/10 01:24:41;;;;;;;5.95;2.55;;;17.50;45.60;;;;;;5054141;28;20182;-56
2023/08/10 01:27:11;;;;;;;6.75;3.20;;;17.50;45.70;;;;;;5053133;28;20178;-55
2023/08/10 01:29:38;;;;;;;4.13;2.70;;;17.50;45.80;;;;;;5053700;28;20228;-53
2023/08/10 01:32:04;;;;;;;3.65;3.05;;;17.50;45.60;;;;;;5053652;28;20746;-53
2023/08/10 01:34:30;;;;;;;3.05;2.50;;;17.50;45.60;;;;;;5053186;28;20253;-52
2023/08/10 01:36:56;;;;;;;3.03;2.00;;;17.50;45.60;;;;;;5053315;28;20268;-52
2023/08/10 01:39:23;;;;;;;6.30;2.27;;;17.50;45.70;;;;;;5053270;28;20165;-53
2023/08/10 01:41:49;;;;;;;3.80;2.50;;;17.50;45.80;;;;;;5053414;28;20185;-54
2023/08/10 01:44:15;;;;;;;5.50;2.90;;;17.40;45.60;;;;;;5053217;28;20183;-51
2023/08/10 01:46:43;;;;;;;3.50;2.50;;;17.40;45.60;;;;;;5053318;28;20260;-53
2023/08/10 01:49:13;;;;;;;4.22;2.67;;;17.40;45.80;;;;;;5053252;28;20185;-54
2023/08/10 01:51:42;;;;;;;5.32;2.95;;;17.40;45.80;;;;;;5053008;28;20224;-52
2023/08/10 01:54:09;;;;;;;4.20;2.78;;;17.40;45.70;;;;;;5053013;28;20188;-53
2023/08/10 01:56:35;;;;;;;3.90;2.55;;;17.40;45.80;;;;;;5053466;28;20212;-55
2023/08/10 01:59:01;;;;;;;3.80;2.47;;;17.40;45.70;;;;;;5053257;28;20530;-55
2023/08/10 02:01:27;;;;;;;3.87;2.73;;;17.40;45.80;;;;;;5052675;28;20432;-53
2023/08/10 02:03:54;;;;;;;5.30;2.33;;;17.30;46.00;;;;;;5053361;28;20193;-52
2023/08/10 02:06:20;;;;;;;14.52;3.53;;;17.30;46.00;;;;;;5052779;28;20461;-57
2023/08/10 02:08:46;;;;;;;4.00;2.43;;;17.40;46.00;;;;;;5053364;28;20181;-54
2023/08/10 02:11:11;;;;;;;5.70;2.20;;;17.40;45.90;;;;;;5053190;28;20443;-51
2023/08/10 02:13:37;;;;;;;4.23;2.40;;;17.30;45.80;;;;;;5052846;28;20412;-52
2023/08/10 02:16:03;;;;;;;2.83;2.43;;;17.30;45.90;;;;;;5052608;28;20497;-56
2023/08/10 02:18:30;;;;;;;3.17;2.10;;;17.30;45.90;;;;;;5052457;28;20173;-57
2023/08/10 02:20:56;;;;;;;2.90;2.30;;;17.30;45.90;;;;;;5052668;28;20415;-54
2023/08/10 02:23:22;;;;;;;4.65;2.85;;;17.30;46.00;;;;;;5052762;28;20161;-52
2023/08/10 02:25:48;;;;;;;4.37;2.90;;;17.30;46.10;;;;;;5052906;28;20180;-58
2023/08/10 02:28:15;;;;;;;2.20;1.63;;;17.30;46.10;;;;;;5051871;28;20776;-56
2023/08/10 02:30:40;;;;;;;4.00;2.17;;;17.30;45.90;;;;;;5052969;28;20197;-52
2023/08/10 02:33:06;;;;;;;4.40;2.80;;;17.30;46.00;;;;;;5052497;28;20180;-52
2023/08/10 02:35:32;;;;;;;4.10;2.50;;;17.30;46.00;;;;;;5052604;28;20205;-54
2023/08/10 02:37:58;;;;;;;3.90;1.80;;;17.20;46.10;;;;;;5052493;28;20415;-55
2023/08/10 02:40:24;;;;;;;3.17;2.63;;;17.20;46.30;;;;;;5052306;28;20550;-53
2023/08/10 02:42:50;;;;;;;3.20;2.00;;;17.20;46.40;;;;;;5052709;28;20185;-53
2023/08/10 02:45:16;;;;;;;3.17;2.50;;;17.30;46.70;;;;;;5052296;28;20177;-54
2023/08/10 02:47:42;;;;;;;2.75;1.88;;;17.20;46.50;;;;;;5055005;28;20408;-55
2023/08/10 02:50:11;;;;;;;3.37;2.57;;;17.20;46.60;;;;;;5053849;28;20529;-53
2023/08/10 02:52:37;;;;;;;4.45;2.33;;;17.30;46.60;;;;;;5053179;28;20264;-53
2023/08/10 02:55:05;;;;;;;2.92;2.15;;;17.30;46.70;;;;;;5054119;28;20220;-53
2023/08/10 02:57:31;;;;;;;4.35;2.13;;;17.30;46.60;;;;;;5054371;28;20240;-53
2023/08/10 02:59:57;;;;;;;4.13;2.97;;;17.30;46.60;;;;;;5054183;28;20646;-53
2023/08/10 03:02:22;;;;;;;4.37;2.63;;;17.30;46.60;;;;;;5053105;28;20184;-52
2023/08/10 03:04:48;;;;;;;2.77;2.20;;;17.30;46.40;;;;;;5052290;28;20176;-55
2023/08/10 03:07:15;;;;;;;4.60;2.60;;;17.30;46.20;;;;;;5052492;28;20742;-53
2023/08/10 03:09:41;;;;;;;3.95;2.70;;;17.30;46.30;;;;;;5051887;28;20184;-53
2023/08/10 03:12:09;;;;;;;3.30;2.40;;;17.30;46.30;;;;;;5052742;28;20232;-55
2023/08/10 03:14:35;;;;;;;3.63;2.25;;;17.30;46.20;;;;;;5054126;28;20184;-52
2023/08/10 03:17:00;;;;;;;4.83;2.80;;;17.20;46.30;;;;;;5054718;28;20169;-52
2023/08/10 03:19:26;;;;;;;4.17;2.83;;;17.20;46.20;;;;;;5054402;28;20833;-55
2023/08/10 03:21:52;;;;;;;2.57;2.00;;;17.20;46.30;;;;;;5056265;28;20274;-51
2023/08/10 03:24:18;;;;;;;4.32;2.40;;;17.20;46.30;;;;;;5056536;28;20172;-52
2023/08/10 03:26:46;;;;;;;5.03;2.90;;;17.20;46.40;;;;;;5056261;28;20177;-56
2023/08/10 03:29:11;;;;;;;4.35;2.83;;;17.10;46.30;;;;;;5055293;28;20201;-52
2023/08/10 03:31:37;;;;;;;3.37;2.13;;;17.10;46.00;;;;;;5055117;28;20278;-55
2023/08/10 03:34:03;;;;;;;6.20;3.43;;;17.10;46.20;;;;;;5055214;28;20185;-52
2023/08/10 03:36:30;;;;;;;3.47;2.40;;;17.00;46.10;;;;;;5055998;28;20791;-55
2023/08/10 03:38:56;;;;;;;3.40;2.63;;;17.00;46.00;;;;;;5055586;28;20252;-57
2023/08/10 03:41:21;;;;;;;3.13;2.73;;;17.00;46.20;;;;;;5054507;28;20224;-51
2023/08/10 03:43:47;;;;;;;4.90;2.90;;;17.00;46.10;;;;;;5055560;28;20173;-50
2023/08/10 03:46:13;;;;;;;3.87;2.63;;;17.00;46.30;;;;;;5056091;28;20803;-57
2023/08/10 03:48:39;;;;;;;5.15;3.17;;;17.00;46.20;;;;;;5054401;28;20184;-56
2023/08/10 03:51:05;;;;;;;2.73;2.40;;;17.00;46.30;;;;;;5056286;28;20201;-52
2023/08/10 03:53:31;;;;;;;3.80;2.93;;;17.00;46.30;;;;;;5054778;28;20661;-53
2023/08/10 03:55:57;;;;;;;2.93;2.57;;;16.90;46.20;;;;;;5055303;28;20264;-55
2023/08/10 03:58:23;;;;;;;2.45;1.90;;;16.90;46.20;;;;;;5055428;28;20253;-55
2023/08/10 04:00:49;;;;;;;4.50;2.80;;;16.90;46.20;;;;;;5053976;28;20685;-51
2023/08/10 04:03:15;;;;;;;3.53;2.60;;;16.80;46.10;;;;;;5054588;28;20282;-56
2023/08/10 04:05:41;;;;;;;4.43;3.20;;;16.80;46.40;;;;;;5055001;28;20911;-55
2023/08/10 04:08:10;;;;;;;3.17;2.40;;;16.80;46.50;;;;;;5056389;28;20184;-55
2023/08/10 04:10:37;;;;;;;4.60;3.38;;;16.80;46.60;;;;;;5055241;28;20438;-53
2023/08/10 04:13:03;;;;;;;3.13;2.78;;;16.80;46.70;;;;;;5056190;28;20184;-51
2023/08/10 04:15:32;;;;;;;6.28;2.80;;;16.80;46.70;;;;;;5056256;28;20247;-53
2023/08/10 04:17:58;;;;;;;3.45;2.30;;;16.80;46.70;;;;;;5054094;28;20260;-56
2023/08/10 04:20:24;;;;;;;5.80;2.80;;;16.80;46.60;;;;;;5055166;28;20227;-51
2023/08/10 04:22:50;;;;;;;6.00;3.55;;;16.80;46.60;;;;;;5055657;28;20780;-52
2023/08/10 04:25:16;;;;;;;5.20;3.03;;;16.90;46.70;;;;;;5055160;28;20541;-52
2023/08/10 04:27:42;;;;;;;3.37;2.80;;;16.90;46.70;;;;;;5055292;28;20169;-55
2023/08/10 04:30:08;;;;;;;3.60;2.43;;;16.90;46.70;;;;;;5055143;28;20876;-55
2023/08/10 04:32:36;;;;;;;3.63;2.40;;;16.90;46.70;;;;;;5055157;28;20188;-51
2023/08/10 04:35:02;;;;;;;4.70;2.72;;;16.90;46.90;;;;;;5055607;28;20236;-52
2023/08/10 04:37:28;;;;;;;3.13;2.63;;;16.90;47.60;;;;;;5054785;28;20166;-57
2023/08/10 04:39:54;;;;;;;4.70;2.80;;;17.00;46.90;;;;;;5054065;28;20177;-57
2023/08/10 04:42:20;;;;;;;3.58;3.00;;;17.00;46.90;;;;;;5054057;28;20216;-52
2023/08/10 04:44:46;;;;;;;3.23;2.20;;;17.10;47.00;;;;;;5055028;28;20181;-57
2023/08/10 04:47:12;;;;;;;3.80;2.57;;;17.20;46.90;;;;;;5055363;28;20423;-55
2023/08/10 04:49:37;;;;;;;7.10;2.67;;;17.20;46.70;;;;;;5055723;28;20718;-56
2023/08/10 04:52:04;;;;;;;3.67;2.80;;;17.30;46.50;;;;;;5053649;28;20976;-52
2023/08/10 04:54:29;;;;;;;3.95;2.85;;;17.30;46.40;;;;;;5055387;28;20189;-51
2023/08/10 04:56:55;;;;;;;3.50;2.53;;;17.40;46.50;;;;;;5053265;28;20196;-56
2023/08/10 04:59:21;;;;;;;3.70;3.33;;;17.40;46.50;;;;;;5055912;28;20542;-56
2023/08/10 05:01:47;;;;;;;2.63;2.43;;;17.40;46.40;;;;;;5055051;28;20713;-50
2023/08/10 05:04:14;;;;;;;3.15;2.60;;;17.50;46.10;;;;;;5054385;28;20170;-51
2023/08/10 05:06:41;;;;;;;5.57;3.42;;;17.60;46.00;;;;;;5052794;28;20184;-54
2023/08/10 05:09:06;;;;;;;3.42;2.55;;;17.60;46.00;;;;;;5052612;28;20180;-58
2023/08/10 05:11:32;;;;;;;6.37;3.90;;;17.70;45.90;;;;;;5052505;28;20287;-50
2023/08/10 05:13:59;;;;;;;3.03;2.73;;;17.70;46.10;;;;;;5052913;28;20256;-55
2023/08/10 05:16:25;;;;;;;3.38;2.88;;;17.80;46.30;;;;;;5052743;28;20451;-52
2023/08/10 05:18:51;;;;;;;6.47;3.58;;;17.80;46.00;;;;;;5052742;28;20178;-52
2023/08/10 05:21:17;;;;;;;3.90;2.80;;;17.90;46.10;;;;;;5052604;28;20254;-56
2023/08/10 05:23:43;;;;;;;5.05;3.30;;;17.90;46.00;;;;;;5052828;28;20744;-51
2023/08/10 05:26:10;;;;;;;6.78;2.92;;;18.00;45.90;;;;;;5052620;28;20177;-53
2023/08/10 05:28:36;;;;;;;5.70;3.45;;;18.10;45.80;;;;;;5052338;28;20174;-55
2023/08/10 05:31:02;;;;;;;5.70;2.50;;;18.10;45.90;;;;;;5052102;28;20248;-51
2023/08/10 05:33:28;;;;;;;3.80;2.80;;;18.20;45.20;;;;;;5052416;28;20408;-53
2023/08/10 05:35:54;;;;;;;4.60;2.10;;;18.20;44.80;;;;;;5052375;28;20254;-55
2023/08/10 05:38:19;;;;;;;14.50;2.70;;;18.20;44.90;;;;;;5052257;28;20917;-53
2023/08/10 05:40:45;;;;;;;4.10;2.30;;;18.30;45.30;;;;;;5051772;28;20192;-56
2023/08/10 05:43:11;;;;;;;4.10;2.63;;;18.40;45.40;;;;;;5051815;28;20201;-54
2023/08/10 05:45:37;;;;;;;5.33;3.03;;;18.40;44.90;;;;;;5052475;28;20203;-51
2023/08/10 05:48:12;;;;;;;4.87;2.53;;;18.50;45.10;;;;;;5052314;28;20908;-54
2023/08/10 05:50:38;;;;;;;4.32;2.70;;;18.60;45.00;;;;;;5052044;28;20580;-53
2023/08/10 05:53:06;;;;;;;4.95;2.67;;;18.70;45.00;;;;;;5052063;28;20181;-54
2023/08/10 05:55:32;;;;;;;3.47;3.13;;;18.80;45.30;;;;;;5051955;28;20201;-52
2023/08/10 05:57:58;;;;;;;2.80;1.77;;;18.80;44.80;;;;;;5051929;28;20185;-53
2023/08/10 06:00:24;;;;;;;4.10;2.67;;;19.00;44.40;;;;;;5051960;28;20189;-56
2023/08/10 06:02:51;;;;;;;3.20;2.40;;;19.10;44.10;;;;;;5052264;28;20997;-53
2023/08/10 06:05:17;;;;;;;2.42;1.92;;;19.10;43.80;;;;;;5052007;28;20165;-56
2023/08/10 06:07:47;;;;;;;4.22;2.45;;;19.20;43.80;;;;;;5051999;28;20197;-52
2023/08/10 06:10:14;;;;;;;3.90;2.20;;;19.30;43.70;;;;;;5051895;28;20184;-53
2023/08/10 06:12:41;;;;;;;3.10;2.30;;;19.40;42.70;;;;;;5051869;28;20207;-54
2023/08/10 06:15:11;;;;;;;5.13;2.45;;;19.50;42.60;;;;;;5051749;28;20732;-51
2023/08/10 06:17:37;;;;;;;3.30;2.58;;;19.50;42.60;;;;;;5051833;28;20181;-55
2023/08/10 06:20:13;;;;;;;3.25;2.20;;;19.60;42.80;;;;;;5051611;28;20178;-56
2023/08/10 06:22:43;;;;;;;4.38;2.15;;;19.70;42.40;;;;;;5051846;28;20172;-52
2023/08/10 06:25:10;;;;;;;3.60;2.10;;;19.70;43.00;;;;;;5050555;28;20199;-54
2023/08/10 06:27:36;;;;;;;3.25;1.77;;;19.80;43.20;;;;;;5051713;28;20230;-57
2023/08/10 06:30:03;;;;;;;5.93;3.03;;;20.00;43.00;;;;;;5050158;28;20538;-51
2023/08/10 06:32:29;;;;;;;5.03;2.00;;;20.10;43.00;;;;;;5051632;28;20181;-52
2023/08/10 06:34:55;;;;;;;3.90;2.33;;;20.20;42.60;;;;;;5051554;28;20193;-55
2023/08/10 06:37:21;;;;;;;4.43;2.90;;;20.30;41.90;;;;;;5051603;28;20399;-54
2023/08/10 06:39:48;;;;;;;3.15;2.10;;;20.40;42.10;;;;;;5051311;28;20415;-53
2023/08/10 06:42:14;;;;;;;3.85;2.75;;;20.50;42.50;;;;;;5051786;28;20287;-56
2023/08/10 06:44:40;;;;;;;3.55;3.17;;;20.60;42.20;;;;;;5051510;28;20641;-54
2023/08/10 06:47:05;;;;;;;6.83;2.17;;;20.70;41.20;;;;;;5051506;28;20200;-53
2023/08/10 06:49:31;;;;;;;4.87;2.37;;;20.70;41.80;;;;;;5051331;28;20177;-56
2023/08/10 06:51:57;;;;;;;6.50;2.70;;;20.80;41.60;;;;;;5051376;28;20209;-56
2023/08/10 06:54:24;;;;;;;2.30;1.60;;;20.80;41.90;;;;;;5053408;28;20438;-53
2023/08/10 06:56:50;;;;;;;3.72;2.40;;;21.00;42.60;;;;;;5055517;28;20538;-55
2023/08/10 06:59:16;;;;;;;4.90;2.58;;;21.10;41.90;;;;;;5055222;28;20223;-58
2023/08/10 07:01:42;;;;;;;3.87;2.73;;;21.10;41.80;;;;;;5055423;28;20199;-52
2023/08/10 07:04:08;;;;;;;4.80;2.43;;;21.20;41.70;;;;;;5055181;28;20403;-52
2023/08/10 07:06:34;;;;;;;4.40;2.20;;;21.30;41.20;;;;;;5055382;28;20185;-56
2023/08/10 07:08:59;;;;;;;3.70;2.50;;;21.40;41.30;;;;;;5055001;28;20205;-53
2023/08/10 07:11:25;;;;;;;5.47;2.07;;;21.40;41.80;;;;;;5055002;28;20239;-55
2023/08/10 07:13:51;;;;;;;4.43;2.23;;;21.50;40.40;;;;;;5055045;28;20201;-51
2023/08/10 07:16:17;;;;;;;3.20;2.00;;;21.60;40.30;;;;;;5055060;28;20447;-52
2023/08/10 07:18:43;;;;;;;2.13;1.77;;;21.60;40.20;;;;;;5054963;28;20165;-57
2023/08/10 07:21:09;;;;;;;6.80;2.03;;;21.70;40.80;;;;;;5054477;28;20222;-52
2023/08/10 07:23:35;;;;;;;2.77;2.07;;;21.80;40.10;;;;;;5054785;28;20915;-53
2023/08/10 07:26:01;;;;;;;4.27;2.40;;;21.80;39.40;;;;;;5054823;28;20408;-56
2023/08/10 07:28:27;;;;;;;3.60;2.30;;;21.90;40.30;;;;;;5054733;28;20173;-51
2023/08/10 07:30:53;;;;;;;2.80;2.30;;;22.00;40.60;;;;;;5054504;28;20838;-53
2023/08/10 07:33:19;;;;;;;2.65;1.75;;;22.10;40.40;;;;;;5054658;28;20205;-55
2023/08/10 07:35:46;;;;;;;3.80;2.63;;;22.20;39.90;;;;;;5054472;28;20208;-52
2023/08/10 07:38:16;;;;;;;4.13;2.10;;;22.30;39.40;;;;;;5054559;28;20884;-55
2023/08/10 07:40:42;;;;;;;2.93;2.30;;;22.40;41.00;;;;;;5054413;28;20197;-55
2023/08/10 07:43:08;;;;;;;4.03;2.10;;;22.50;40.80;;;;;;5054443;28;20457;-52
2023/08/10 07:45:34;;;;;;;4.00;2.70;;;22.60;39.90;;;;;;5054440;28;20408;-54
2023/08/10 07:48:00;;;;;;;6.73;2.30;;;22.80;40.80;;;;;;5054448;28;20200;-55
2023/08/10 07:50:27;;;;;;;2.97;2.07;;;22.80;40.70;;;;;;5053926;28;20438;-53
2023/08/10 07:52:53;;;;;;;3.53;1.90;;;22.90;38.60;;;;;;5054295;28;20177;-53
2023/08/10 07:55:19;;;;;;;2.90;1.80;;;23.00;38.30;;;;;;5054059;28;20455;-56
2023/08/10 07:57:44;;;;;;;7.43;2.30;;;23.10;40.10;;;;;;5054141;28;20422;-53
2023/08/10 08:00:11;;;;;;;3.00;1.77;;;23.20;40.40;;;;;;5053824;28;20490;-54
2023/08/10 08:02:37;;;;;;;4.40;2.53;;;23.30;39.90;;;;;;5054032;28;20911;-53
2023/08/10 08:05:04;;;;;;;4.77;2.67;;;23.30;38.80;;;;;;5053559;28;20411;-55
2023/08/10 08:07:32;;;;;;;4.23;2.37;;;23.40;39.50;;;;;;5053935;28;20416;-55
2023/08/10 08:10:01;;;;;;;6.20;2.50;;;23.50;38.80;;;;;;5053638;28;20449;-53
2023/08/10 08:12:27;;;;;;;3.57;2.03;;;23.70;37.90;;;;;;5053889;28;20518;-52
2023/08/10 08:14:54;;;;;;;2.50;2.00;;;23.70;38.30;;;;;;5053771;28;20408;-56
2023/08/10 08:17:21;;;;;;;3.30;2.50;;;23.70;37.60;;;;;;5053714;28;20545;-53
2023/08/10 08:19:47;;;;;;;2.93;1.77;;;23.90;38.60;;;;;;5053755;28;20406;-55
2023/08/10 08:22:13;;;;;;;2.70;2.17;;;23.90;38.70;;;;;;5053704;28;20485;-54
2023/08/10 08:24:40;;;;;;;4.30;1.90;;;24.10;39.00;;;;;;5053624;28;20408;-51
2023/08/10 08:27:06;;;;;;;3.37;2.40;;;24.20;38.70;;;;;;5053583;28;20993;-56
2023/08/10 08:29:32;;;;;;;9.13;2.23;;;24.20;35.70;;;;;;5053310;28;20442;-52
2023/08/10 08:31:58;;;;;;;3.77;3.43;;;24.20;36.10;;;;;;5053544;28;20212;-53
2023/08/10 08:34:23;;;;;;;5.03;1.97;;;24.30;36.20;;;;;;5053469;28;20880;-57
2023/08/10 08:36:49;;;;;;;5.30;2.40;;;24.30;37.50;;;;;;5053251;28;20450;-52
2023/08/10 08:39:15;;;;;;;4.23;2.90;;;24.40;37.60;;;;;;5053165;28;20168;-54
2023/08/10 08:41:42;;;;;;;5.17;2.07;;;24.60;37.20;;;;;;5053245;28;20420;-56
2023/08/10 08:44:08;;;;;;;7.80;2.37;;;24.70;33.60;;;;;;5053431;28;20173;-53
2023/08/10 08:46:39;;;;;;;5.83;2.20;;;24.70;35.00;;;;;;5053094;28;20400;-53
2023/08/10 08:49:05;;;;;;;5.10;2.80;;;24.70;37.40;;;;;;5053178;28;20415;-56
2023/08/10 08:51:32;;;;;;;5.50;2.67;;;24.80;36.60;;;;;;5052988;28;20436;-53
2023/08/10 08:54:02;;;;;;;2.50;1.80;;;24.90;33.20;;;;;;5051759;28;20436;-52
2023/08/10 08:56:28;;;;;;;3.00;1.97;;;24.90;32.70;;;;;;5053237;28;20451;-56
2023/08/10 08:58:54;;;;;;;3.30;1.60;;;24.90;35.00;;;;;;5053031;28;20400;-56
2023/08/10 09:01:21;;;;;;;3.03;2.20;;;25.00;35.30;;;;;;5052547;28;20438;-52
2023/08/10 09:03:48;;;;;;;2.30;2.10;;;25.20;34.80;;;;;;5053108;28;20408;-52
2023/08/10 09:06:14;;;;;;;4.43;2.23;;;25.30;34.40;;;;;;5052774;28;20412;-56
2023/08/10 09:08:41;;;;;;;5.17;1.53;;;25.30;33.70;;;;;;5052824;28;20407;-56
2023/08/10 09:11:08;;;;;;;2.33;1.90;;;25.40;31.60;;;;;;5052664;28;20435;-53
2023/08/10 09:13:34;;;;;;;3.37;1.70;;;25.50;33.20;;;;;;5052703;28;20407;-56
2023/08/10 09:16:06;;;;;;;3.33;1.63;;;25.60;32.00;;;;;;5052068;28;20478;-53
2023/08/10 09:18:33;;;;;;;3.93;1.73;;;25.80;32.40;;;;;;5052687;28;20932;-54
2023/08/10 09:21:16;;;;;;;2.67;1.70;;;25.90;31.00;;;;;;5052166;28;20940;-56
2023/08/10 09:23:45;;;;;;;2.67;1.50;;;26.10;31.60;;;;;;5052898;28;20887;-52
2023/08/10 09:26:11;;;;;;;2.20;1.80;;;26.10;30.20;;;;;;5052341;28;20458;-53
2023/08/10 09:28:38;;;;;;;2.80;1.93;;;26.20;31.30;;;;;;5051303;28;20994;-55
2023/08/10 09:31:08;;;;;;;10.97;1.90;;;26.30;30.70;;;;;;5052149;28;20463;-53
2023/08/10 09:33:35;;;;;;;2.90;1.40;;;26.40;30.60;;;;;;5052379;28;20416;-55
2023/08/10 09:36:06;;;;;;;2.20;1.77;;;26.40;30.70;;;;;;5052134;28;20447;-54
2023/08/10 09:38:33;;;;;;;2.67;1.97;;;26.50;30.10;;;;;;5052343;28;20442;-53
2023/08/10 09:41:09;;;;;;;2.47;1.70;;;26.50;29.80;;;;;;5051892;28;20427;-57
2023/08/10 09:43:37;;;;;;;3.20;2.00;;;26.60;28.60;;;;;;5052256;28;20445;-53
2023/08/10 09:46:07;;;;;;;6.17;1.87;;;26.60;28.80;;;;;;5052552;28;20412;-53
2023/08/10 09:48:37;;;;;;;2.73;1.90;;;26.50;29.00;;;;;;5052178;28;20415;-57
2023/08/10 09:51:08;;;;;;;2.87;1.83;;;26.30;29.90;;;;;;5050423;28;20459;-51
2023/08/10 09:53:35;;;;;;;5.97;2.20;;;26.20;28.00;;;;;;5051992;28;20428;-56
2023/08/10 09:56:03;;;;;;;2.83;1.43;;;26.10;29.10;;;;;;5052023;28;20478;-57
2023/08/10 09:58:28;;;;;;;2.17;1.77;;;26.10;29.00;;;;;;5050847;28;20418;-52
2023/08/10 10:00:55;;;;;;;4.33;1.90;;;26.20;28.60;;;;;;5051704;28;20424;-56
2023/08/10 10:03:22;;;;;;;3.33;2.10;;;26.30;30.10;;;;;;5051984;28;20408;-55
2023/08/10 10:05:51;;;;;;;2.50;1.90;;;26.50;31.60;;;;;;5051796;28;20895;-51
2023/08/10 10:08:17;;;;;;;3.00;2.00;;;26.70;31.40;;;;;;5051908;28;20433;-54
2023/08/10 10:10:45;;;;;;;6.40;2.17;;;26.70;31.40;;;;;;5051608;28;20423;-53
2023/08/10 10:13:15;;;;;;;2.20;1.70;;;26.80;30.30;;;;;;5051870;28;20463;-53
2023/08/10 10:15:43;;;;;;;6.00;1.90;;;26.90;30.80;;;;;;5051883;28;20443;-54
2023/08/10 10:18:10;;;;;;;5.77;2.80;;;26.90;30.60;;;;;;5052099;28;20411;-56
2023/08/10 10:20:48;;;;;;;3.20;1.90;;;27.00;30.00;;;;;;5050254;28;20424;-51
2023/08/10 10:23:19;;;;;;;4.13;2.33;;;27.10;29.40;;;;;;5052139;28;20487;-56
2023/08/10 10:26:04;;;;;;;3.20;2.30;;;27.20;29.00;;;;;;5052016;28;20435;-55
2023/08/10 10:28:34;;;;;;;4.07;2.27;;;27.40;29.50;;;;;;5054161;28;20412;-53
2023/08/10 10:31:09;;;;;;;3.73;1.90;;;27.50;26.90;;;;;;5055708;28;20435;-58
2023/08/10 10:33:38;;;;;;;1.80;1.40;;;27.60;27.90;;;;;;5055699;28;20391;-53
2023/08/10 10:36:07;;;;;;;2.77;1.77;;;27.60;28.10;;;;;;5055729;28;20455;-51
2023/08/10 10:38:33;;;;;;;2.53;2.27;;;27.70;30.10;;;;;;5055639;28;20410;-55
2023/08/10 10:41:29;;;;;;;2.70;1.80;;;27.80;28.40;;;;;;5055254;28;20514;-53
2023/08/10 10:43:57;;;;;;;3.50;2.10;;;27.90;27.40;;;;;;5055613;28;20438;-53
2023/08/10 10:46:32;;;;;;;4.13;2.20;;;27.80;28.40;;;;;;5055505;28;20408;-54
2023/08/10 10:48:58;;;;;;;3.40;2.23;;;27.90;29.40;;;;;;5055558;28;20403;-57
2023/08/10 10:51:25;;;;;;;2.90;2.27;;;27.90;29.30;;;;;;5055141;28;20462;-52
2023/08/10 10:53:54;;;;;;;3.60;2.60;;;28.10;29.80;;;;;;5055213;28;20428;-53
2023/08/10 10:56:21;;;;;;;2.43;1.80;;;28.10;30.50;;;;;;5059133;28;20462;-53
2023/08/10 10:58:48;;;;;;;3.03;2.07;;;28.20;30.50;;;;;;5076438;28;20934;-55
2023/08/10 11:01:21;;;;;;;3.17;2.40;;;28.30;26.70;;;;;;5073157;28;20435;-54
2023/08/10 11:03:54;;;;;;;3.20;1.90;;;28.10;26.70;;;;;;5082279;28;20937;-53
2023/08/10 11:06:21;;;;;;;3.00;2.30;;;27.90;27.90;;;;;;5074019;28;20477;-53
2023/08/10 11:08:56;;;;;;;5.03;2.53;;;27.70;28.00;;;;;;5073866;28;20417;-54
2023/08/10 11:11:22;;;;;;;3.40;2.07;;;27.70;29.30;;;;;;5074080;28;20768;-55
2023/08/10 11:13:48;;;;;;;3.70;2.00;;;27.60;29.60;;;;;;5074102;28;20418;-53
2023/08/10 11:16:15;;;;;;;2.60;2.40;;;27.50;30.00;;;;;;5073874;28;20481;-54
2023/08/10 11:18:45;;;;;;;3.63;2.30;;;27.50;29.40;;;;;;5073205;28;20972;-55
2023/08/10 11:21:12;;;;;;;3.97;2.93;;;27.50;27.80;;;;;;5072381;28;20433;-51
2023/08/10 11:23:41;;;;;;;6.93;2.70;;;27.70;27.10;;;;;;5073860;28;20460;-52
2023/08/10 11:26:07;;;;;;;3.10;2.43;;;27.90;28.70;;;;;;5072429;28;20422;-55
2023/08/10 11:28:34;;;;;;;3.40;2.00;;;28.10;27.10;;;;;;5073667;28;20407;-51
2023/08/10 11:31:04;;;;;;;2.30;2.03;;;28.10;26.30;;;;;;5072755;28;20514;-57
2023/08/10 11:33:30;;;;;;;3.83;2.37;;;27.90;26.00;;;;;;5074470;28;20506;-51
2023/08/10 11:35:56;;;;;;;3.33;2.37;;;27.80;26.30;;;;;;5074699;28;20458;-57
2023/08/10 11:38:23;;;;;;;4.07;2.10;;;27.70;26.80;;;;;;5074909;28;20763;-56
2023/08/10 11:40:50;;;;;;;5.33;2.70;;;27.60;27.50;;;;;;5073333;28;20981;-53
2023/08/10 11:43:19;;;;;;;2.40;2.17;;;27.60;27.50;;;;;;5074468;28;20407;-53
2023/08/10 11:45:46;;;;;;;3.07;1.97;;;27.70;28.60;;;;;;5074411;28;20410;-54
2023/08/10 11:48:15;;;;;;;2.50;2.30;;;27.90;29.00;;;;;;5074351;28;20413;-51
2023/08/10 11:50:43;;;;;;;3.43;2.60;;;28.20;28.80;;;;;;5074210;28;20501;-52
2023/08/10 11:53:20;;;;;;;4.23;2.33;;;28.30;29.20;;;;;;5074173;28;20937;-56
2023/08/10 11:55:51;;;;;;;5.20;2.67;;;28.60;29.20;;;;;;5074172;28;20972;-53
2023/08/10 11:58:19;;;;;;;4.97;2.57;;;28.80;30.30;;;;;;5074106;28;20501;-54
2023/08/10 12:00:54;;;;;;;2.53;1.90;;;28.90;27.90;;;;;;5074017;28;20423;-53
2023/08/10 12:03:27;;;;;;;3.60;2.50;;;28.90;27.10;;;;;;5074126;28;20392;-53
2023/08/10 12:06:00;;;;;;;4.10;2.23;;;29.00;29.40;;;;;;5074319;28;20418;-55
2023/08/10 12:08:32;;;;;;;5.03;2.03;;;29.10;26.40;;;;;;5074022;28;20494;-51
2023/08/10 12:11:03;;;;;;;2.80;2.37;;;29.10;26.70;;;;;;5072365;28;20443;-56
2023/08/10 12:13:29;;;;;;;2.70;2.40;;;29.00;26.20;;;;;;5073926;28;20456;-52
2023/08/10 12:15:58;;;;;;;7.20;2.40;;;28.90;26.80;;;;;;5073996;28;20458;-52
2023/08/10 12:18:25;;;;;;;2.83;2.37;;;28.90;27.80;;;;;;5073734;28;20411;-56
2023/08/10 12:20:52;;;;;;;4.17;3.07;;;28.80;28.70;;;;;;5073448;28;20453;-55
2023/08/10 12:23:19;;;;;;;3.43;2.50;;;28.90;28.00;;;;;;5073522;28;20492;-53
2023/08/10 12:25:47;;;;;;;2.43;2.23;;;29.00;28.40;;;;;;5073700;28;20525;-55
2023/08/10 12:28:15;;;;;;;4.90;2.90;;;29.10;28.60;;;;;;5073558;28;20426;-54
2023/08/10 12:30:41;;;;;;;5.80;3.50;;;29.20;28.80;;;;;;5073271;28;20423;-52
2023/08/10 12:33:09;;;;;;;2.97;2.67;;;29.40;27.10;;;;;;5073521;28;20439;-52
2023/08/10 12:35:35;;;;;;;4.37;2.60;;;29.40;28.00;;;;;;5073366;28;20549;-52
2023/08/10 12:38:03;;;;;;;2.67;2.43;;;29.50;28.00;;;;;;5073591;28;20502;-53
2023/08/10 12:40:29;;;;;;;3.63;2.00;;;29.60;28.10;;;;;;5073211;28;20484;-54
2023/08/10 12:42:55;;;;;;;5.50;2.30;;;29.70;26.60;;;;;;5073296;28;20407;-52
2023/08/10 12:45:22;;;;;;;3.43;2.63;;;29.70;26.60;;;;;;5073198;28;20465;-54